sensor_id;sensor_type;location;lat;lon;timestamp;temperature;humidity
24772;DHT22;12870;52.274;9.754;2023-04-06T00:01:37;2.60;99.90
24772;DHT22;12870;52.274;9.754;2023-04-06T00:04:04;2.60;99.90
24772;DHT22;12870;52.274;9.754;2023-04-06T00:06:30;2.60;99.90
24772;DHT22;12870;52.274;9.754;2023-04-06T00:08:57;2.60;99.90
24772;DHT22;12870;52.274;9.754;2023-04-06T00:11:23;2.60;99.90
24772;DHT22;12870;52.274;9.754;2023-04-06T00:13:50;2.60;99.90
24772;DHT22;12870;52.274;9.754;2023-04-06T00:16:16;2.60;99.90
24772;DHT22;12870;52.274;9.754;2023-04-06T00:18:42;2.60;99.90
24772;DHT22;12870;52.274;9.754;2023-04-06T00:21:07;2.60;99.90
24772;DHT22;12870;52.274;9.754;2023-04-06T00:23:33;2.60;99.90
24772;DHT22;12870;52.274;9.754;2023-04-06T00:25:59;2.50;99.90
24772;DHT22;12870;52.274;9.754;2023-04-06T00:28:24;2.50;99.90
24772;DHT22;12870;52.274;9.754;2023-04-06T00:30:54;2.50;99.90
24772;DHT22;12870;52.274;9.754;2023-04-06T00:33:23;2.40;99.90
24772;DHT22;12870;52.274;9.754;2023-04-06T00:35:49;2.40;99.90
24772;DHT22;12870;52.274;9.754;2023-04-06T00:38:15;2.30;99.90
24772;DHT22;12870;52.274;9.754;2023-04-06T00:40:41;2.30;99.90
24772;DHT22;12870;52.274;9.754;2023-04-06T00:43:10;2.20;99.90
24772;DHT22;12870;52.274;9.754;2023-04-06T00:45:37;2.10;99.90
24772;DHT22;12870;52.274;9.754;2023-04-06T00:48:03;2.00;99.90
24772;DHT22;12870;52.274;9.754;2023-04-06T00:50:29;2.00;99.90
24772;DHT22;12870;52.274;9.754;2023-04-06T00:52:55;2.00;99.90
24772;DHT22;12870;52.274;9.754;2023-04-06T00:55:21;2.00;99.90
24772;DHT22;12870;52.274;9.754;2023-04-06T00:57:47;1.90;99.90
24772;DHT22;12870;52.274;9.754;2023-04-06T01:00:13;1.90;99.90
24772;DHT22;12870;52.274;9.754;2023-04-06T01:02:39;1.90;99.90
24772;DHT22;12870;52.274;9.754;2023-04-06T01:05:06;1.90;99.90
24772;DHT22;12870;52.274;9.754;2023-04-06T01:07:32;1.80;99.90
24772;DHT22;12870;52.274;9.754;2023-04-06T01:09:57;1.80;99.90
24772;DHT22;12870;52.274;9.754;2023-04-06T01:12:24;1.80;99.90
24772;DHT22;12870;52.274;9.754;2023-04-06T01:14:50;1.80;99.90
24772;DHT22;12870;52.274;9.754;2023-04-06T01:17:15;1.70;99.90
24772;DHT22;12870;52.274;9.754;2023-04-06T01:19:41;1.70;99.90
24772;DHT22;12870;52.274;9.754;2023-04-06T01:22:07;1.70;99.90
24772;DHT22;12870;52.274;9.754;2023-04-06T01:24:33;1.70;99.90
24772;DHT22;12870;52.274;9.754;2023-04-06T01:26:59;1.70;99.90
24772;DHT22;12870;52.274;9.754;2023-04-06T01:29:26;1.80;99.90
24772;DHT22;12870;52.274;9.754;2023-04-06T01:31:51;1.80;99.90
24772;DHT22;12870;52.274;9.754;2023-04-06T01:34:17;1.90;99.90
24772;DHT22;12870;52.274;9.754;2023-04-06T01:36:43;1.90;99.90
24772;DHT22;12870;52.274;9.754;2023-04-06T01:39:09;1.80;99.90
24772;DHT22;12870;52.274;9.754;2023-04-06T01:41:35;1.80;99.90
24772;DHT22;12870;52.274;9.754;2023-04-06T01:44:01;1.80;99.90
24772;DHT22;12870;52.274;9.754;2023-04-06T01:46:27;1.80;99.90
24772;DHT22;12870;52.274;9.754;2023-04-06T01:48:53;1.70;99.90
24772;DHT22;12870;52.274;9.754;2023-04-06T01:51:19;1.60;99.90
24772;DHT22;12870;52.274;9.754;2023-04-06T01:53:44;1.60;99.90
24772;DHT22;12870;52.274;9.754;2023-04-06T01:56:10;1.60;99.90
24772;DHT22;12870;52.274;9.754;2023-04-06T01:58:36;1.70;99.90
24772;DHT22;12870;52.274;9.754;2023-04-06T02:01:02;1.60;99.90
24772;DHT22;12870;52.274;9.754;2023-04-06T02:03:27;1.70;99.90
24772;DHT22;12870;52.274;9.754;2023-04-06T02:05:53;1.60;99.90
24772;DHT22;12870;52.274;9.754;2023-04-06T02:08:19;1.60;99.90
24772;DHT22;12870;52.274;9.754;2023-04-06T02:10:45;1.60;99.90
24772;DHT22;12870;52.274;9.754;2023-04-06T02:13:10;1.60;99.90
24772;DHT22;12870;52.274;9.754;2023-04-06T02:15:36;1.50;99.90
24772;DHT22;12870;52.274;9.754;2023-04-06T02:18:02;1.40;99.90
24772;DHT22;12870;52.274;9.754;2023-04-06T02:20:27;1.40;99.90
24772;DHT22;12870;52.274;9.754;2023-04-06T02:22:53;1.30;99.90
24772;DHT22;12870;52.274;9.754;2023-04-06T02:25:19;1.30;99.90
24772;DHT22;12870;52.274;9.754;2023-04-06T02:27:44;1.30;99.90
24772;DHT22;12870;52.274;9.754;2023-04-06T02:30:10;1.30;99.90
24772;DHT22;12870;52.274;9.754;2023-04-06T02:32:36;1.20;99.90
24772;DHT22;12870;52.274;9.754;2023-04-06T02:35:02;1.20;99.90
24772;DHT22;12870;52.274;9.754;2023-04-06T02:37:28;1.30;99.90
24772;DHT22;12870;52.274;9.754;2023-04-06T02:39:53;1.30;99.90
24772;DHT22;12870;52.274;9.754;2023-04-06T02:42:19;1.30;99.90
24772;DHT22;12870;52.274;9.754;2023-04-06T02:44:45;1.30;99.90
24772;DHT22;12870;52.274;9.754;2023-04-06T02:47:11;1.30;99.90
24772;DHT22;12870;52.274;9.754;2023-04-06T02:49:37;1.30;99.90
24772;DHT22;12870;52.274;9.754;2023-04-06T02:52:03;1.20;99.90
24772;DHT22;12870;52.274;9.754;2023-04-06T02:54:29;1.20;99.90
24772;DHT22;12870;52.274;9.754;2023-04-06T02:56:54;1.10;99.90
24772;DHT22;12870;52.274;9.754;2023-04-06T02:59:20;1.00;99.90
24772;DHT22;12870;52.274;9.754;2023-04-06T03:01:46;1.00;99.90
24772;DHT22;12870;52.274;9.754;2023-04-06T03:04:12;1.00;99.90
24772;DHT22;12870;52.274;9.754;2023-04-06T03:06:37;1.00;99.90
24772;DHT22;12870;52.274;9.754;2023-04-06T03:09:03;0.90;99.90
24772;DHT22;12870;52.274;9.754;2023-04-06T03:11:29;0.90;99.90
24772;DHT22;12870;52.274;9.754;2023-04-06T03:13:55;0.80;99.90
24772;DHT22;12870;52.274;9.754;2023-04-06T03:16:21;0.70;99.90
24772;DHT22;12870;52.274;9.754;2023-04-06T03:18:46;0.70;99.90
24772;DHT22;12870;52.274;9.754;2023-04-06T03:21:13;0.70;99.90
24772;DHT22;12870;52.274;9.754;2023-04-06T03:23:40;0.70;99.90
24772;DHT22;12870;52.274;9.754;2023-04-06T03:26:06;0.70;99.90
24772;DHT22;12870;52.274;9.754;2023-04-06T03:28:32;0.70;99.90
24772;DHT22;12870;52.274;9.754;2023-04-06T03:30:58;0.60;99.90
24772;DHT22;12870;52.274;9.754;2023-04-06T03:33:24;0.60;99.90
24772;DHT22;12870;52.274;9.754;2023-04-06T03:35:52;0.60;99.90
24772;DHT22;12870;52.274;9.754;2023-04-06T03:38:18;0.60;99.90
24772;DHT22;12870;52.274;9.754;2023-04-06T03:40:44;0.50;99.90
24772;DHT22;12870;52.274;9.754;2023-04-06T03:43:09;0.50;99.90
24772;DHT22;12870;52.274;9.754;2023-04-06T03:45:35;0.50;99.90
24772;DHT22;12870;52.274;9.754;2023-04-06T03:48:01;0.50;99.90
24772;DHT22;12870;52.274;9.754;2023-04-06T03:50:26;0.50;99.90
24772;DHT22;12870;52.274;9.754;2023-04-06T03:52:52;0.60;99.90
24772;DHT22;12870;52.274;9.754;2023-04-06T03:55:18;0.60;99.90
24772;DHT22;12870;52.274;9.754;2023-04-06T03:57:43;0.60;99.90
24772;DHT22;12870;52.274;9.754;2023-04-06T04:00:10;0.60;99.90
24772;DHT22;12870;52.274;9.754;2023-04-06T04:02:36;0.70;99.90
24772;DHT22;12870;52.274;9.754;2023-04-06T04:05:01;0.70;99.90
24772;DHT22;12870;52.274;9.754;2023-04-06T04:07:27;0.70;99.90
24772;DHT22;12870;52.274;9.754;2023-04-06T04:09:53;0.70;99.90
24772;DHT22;12870;52.274;9.754;2023-04-06T04:12:19;0.70;99.90
24772;DHT22;12870;52.274;9.754;2023-04-06T04:14:45;0.70;99.90
24772;DHT22;12870;52.274;9.754;2023-04-06T04:17:10;0.60;99.90
24772;DHT22;12870;52.274;9.754;2023-04-06T04:19:36;0.60;99.90
24772;DHT22;12870;52.274;9.754;2023-04-06T04:22:02;0.60;99.90
24772;DHT22;12870;52.274;9.754;2023-04-06T04:24:30;0.60;99.90
24772;DHT22;12870;52.274;9.754;2023-04-06T04:26:56;0.70;99.90
24772;DHT22;12870;52.274;9.754;2023-04-06T04:29:22;0.70;99.90
24772;DHT22;12870;52.274;9.754;2023-04-06T04:31:48;0.80;99.90
24772;DHT22;12870;52.274;9.754;2023-04-06T04:34:14;0.80;99.90
24772;DHT22;12870;52.274;9.754;2023-04-06T04:36:40;0.80;99.90
24772;DHT22;12870;52.274;9.754;2023-04-06T04:39:07;0.90;99.90
24772;DHT22;12870;52.274;9.754;2023-04-06T04:41:33;0.90;99.90
24772;DHT22;12870;52.274;9.754;2023-04-06T04:43:59;1.00;99.90
24772;DHT22;12870;52.274;9.754;2023-04-06T04:46:25;1.00;99.90
24772;DHT22;12870;52.274;9.754;2023-04-06T04:48:50;1.00;99.90
24772;DHT22;12870;52.274;9.754;2023-04-06T04:51:16;1.00;99.90
24772;DHT22;12870;52.274;9.754;2023-04-06T04:53:42;1.00;99.90
24772;DHT22;12870;52.274;9.754;2023-04-06T04:56:08;1.10;99.90
24772;DHT22;12870;52.274;9.754;2023-04-06T04:58:33;1.20;99.90
24772;DHT22;12870;52.274;9.754;2023-04-06T05:00:59;1.20;99.90
24772;DHT22;12870;52.274;9.754;2023-04-06T05:03:26;1.20;99.90
24772;DHT22;12870;52.274;9.754;2023-04-06T05:05:52;1.20;99.90
24772;DHT22;12870;52.274;9.754;2023-04-06T05:08:18;1.20;99.90
24772;DHT22;12870;52.274;9.754;2023-04-06T05:10:44;1.20;99.90
24772;DHT22;12870;52.274;9.754;2023-04-06T05:13:11;1.20;99.90
24772;DHT22;12870;52.274;9.754;2023-04-06T05:15:37;1.10;99.90
24772;DHT22;12870;52.274;9.754;2023-04-06T05:18:07;1.20;99.90
24772;DHT22;12870;52.274;9.754;2023-04-06T05:20:33;1.20;99.90
24772;DHT22;12870;52.274;9.754;2023-04-06T05:22:59;1.30;99.90
24772;DHT22;12870;52.274;9.754;2023-04-06T05:25:25;1.30;99.90
24772;DHT22;12870;52.274;9.754;2023-04-06T05:27:51;1.30;99.90
24772;DHT22;12870;52.274;9.754;2023-04-06T05:30:16;1.40;99.90
24772;DHT22;12870;52.274;9.754;2023-04-06T05:32:42;1.40;99.90
24772;DHT22;12870;52.274;9.754;2023-04-06T05:35:10;1.50;99.90
24772;DHT22;12870;52.274;9.754;2023-04-06T05:37:36;1.50;99.90
24772;DHT22;12870;52.274;9.754;2023-04-06T05:40:01;1.50;99.90
24772;DHT22;12870;52.274;9.754;2023-04-06T05:42:28;1.60;99.90
24772;DHT22;12870;52.274;9.754;2023-04-06T05:45:02;1.60;99.90
24772;DHT22;12870;52.274;9.754;2023-04-06T05:47:28;1.70;99.90
24772;DHT22;12870;52.274;9.754;2023-04-06T05:49:53;1.80;99.90
24772;DHT22;12870;52.274;9.754;2023-04-06T05:52:19;1.80;99.90
24772;DHT22;12870;52.274;9.754;2023-04-06T05:54:45;1.90;99.90
24772;DHT22;12870;52.274;9.754;2023-04-06T05:57:10;1.90;99.90
24772;DHT22;12870;52.274;9.754;2023-04-06T05:59:36;2.00;99.90
24772;DHT22;12870;52.274;9.754;2023-04-06T06:02:02;2.10;99.90
24772;DHT22;12870;52.274;9.754;2023-04-06T06:04:28;2.10;99.90
24772;DHT22;12870;52.274;9.754;2023-04-06T06:06:53;2.20;99.90
24772;DHT22;12870;52.274;9.754;2023-04-06T06:09:19;2.30;99.90
24772;DHT22;12870;52.274;9.754;2023-04-06T06:11:45;2.30;99.90
24772;DHT22;12870;52.274;9.754;2023-04-06T06:14:11;2.40;99.90
24772;DHT22;12870;52.274;9.754;2023-04-06T06:16:37;2.40;99.90
24772;DHT22;12870;52.274;9.754;2023-04-06T06:19:03;2.50;99.90
24772;DHT22;12870;52.274;9.754;2023-04-06T06:21:28;2.60;99.90
24772;DHT22;12870;52.274;9.754;2023-04-06T06:23:54;2.60;99.90
24772;DHT22;12870;52.274;9.754;2023-04-06T06:26:20;2.60;99.90
24772;DHT22;12870;52.274;9.754;2023-04-06T06:28:47;2.70;99.90
24772;DHT22;12870;52.274;9.754;2023-04-06T06:31:12;2.80;99.90
24772;DHT22;12870;52.274;9.754;2023-04-06T06:33:38;2.90;99.90
24772;DHT22;12870;52.274;9.754;2023-04-06T06:36:04;2.90;99.90
24772;DHT22;12870;52.274;9.754;2023-04-06T06:38:30;3.00;99.90
24772;DHT22;12870;52.274;9.754;2023-04-06T06:40:56;3.10;99.90
24772;DHT22;12870;52.274;9.754;2023-04-06T06:43:21;3.20;99.90
24772;DHT22;12870;52.274;9.754;2023-04-06T06:45:47;3.30;99.90
24772;DHT22;12870;52.274;9.754;2023-04-06T06:48:13;3.40;99.90
24772;DHT22;12870;52.274;9.754;2023-04-06T06:50:38;3.50;99.90
24772;DHT22;12870;52.274;9.754;2023-04-06T06:53:04;3.60;99.90
24772;DHT22;12870;52.274;9.754;2023-04-06T06:55:30;3.70;99.90
24772;DHT22;12870;52.274;9.754;2023-04-06T06:57:55;3.90;99.90
24772;DHT22;12870;52.274;9.754;2023-04-06T07:00:21;3.90;99.90
24772;DHT22;12870;52.274;9.754;2023-04-06T07:02:48;4.00;99.90
24772;DHT22;12870;52.274;9.754;2023-04-06T07:05:15;4.10;99.90
24772;DHT22;12870;52.274;9.754;2023-04-06T07:07:41;4.20;99.90
24772;DHT22;12870;52.274;9.754;2023-04-06T07:10:07;4.30;99.90
24772;DHT22;12870;52.274;9.754;2023-04-06T07:12:33;4.40;99.90
24772;DHT22;12870;52.274;9.754;2023-04-06T07:14:59;4.40;99.90
24772;DHT22;12870;52.274;9.754;2023-04-06T07:17:25;4.50;99.90
24772;DHT22;12870;52.274;9.754;2023-04-06T07:19:50;4.60;99.90
24772;DHT22;12870;52.274;9.754;2023-04-06T07:22:16;4.70;99.90
24772;DHT22;12870;52.274;9.754;2023-04-06T07:24:42;4.70;99.90
24772;DHT22;12870;52.274;9.754;2023-04-06T07:27:07;4.80;99.90
24772;DHT22;12870;52.274;9.754;2023-04-06T07:29:33;4.90;99.90
24772;DHT22;12870;52.274;9.754;2023-04-06T07:31:59;5.00;99.90
24772;DHT22;12870;52.274;9.754;2023-04-06T07:34:25;5.10;99.90
24772;DHT22;12870;52.274;9.754;2023-04-06T07:36:50;5.20;99.90
24772;DHT22;12870;52.274;9.754;2023-04-06T07:39:18;5.30;99.90
24772;DHT22;12870;52.274;9.754;2023-04-06T07:41:44;5.40;99.90
24772;DHT22;12870;52.274;9.754;2023-04-06T07:44:09;5.50;99.90
24772;DHT22;12870;52.274;9.754;2023-04-06T07:46:35;5.60;99.90
24772;DHT22;12870;52.274;9.754;2023-04-06T07:49:01;5.70;99.90
24772;DHT22;12870;52.274;9.754;2023-04-06T07:51:27;5.70;99.90
24772;DHT22;12870;52.274;9.754;2023-04-06T07:53:53;5.80;99.90
24772;DHT22;12870;52.274;9.754;2023-04-06T07:56:19;5.90;99.90
24772;DHT22;12870;52.274;9.754;2023-04-06T07:58:46;6.00;99.90
24772;DHT22;12870;52.274;9.754;2023-04-06T08:01:12;6.10;99.90
24772;DHT22;12870;52.274;9.754;2023-04-06T08:03:38;6.20;99.90
24772;DHT22;12870;52.274;9.754;2023-04-06T08:06:04;6.30;99.90
24772;DHT22;12870;52.274;9.754;2023-04-06T08:08:30;6.40;99.90
24772;DHT22;12870;52.274;9.754;2023-04-06T08:10:56;6.50;99.90
24772;DHT22;12870;52.274;9.754;2023-04-06T08:13:22;6.70;99.90
24772;DHT22;12870;52.274;9.754;2023-04-06T08:15:48;6.80;99.90
24772;DHT22;12870;52.274;9.754;2023-04-06T08:18:13;6.90;99.90
24772;DHT22;12870;52.274;9.754;2023-04-06T08:20:40;7.00;99.90
24772;DHT22;12870;52.274;9.754;2023-04-06T08:23:05;7.10;99.90
24772;DHT22;12870;52.274;9.754;2023-04-06T08:25:34;7.20;99.90
24772;DHT22;12870;52.274;9.754;2023-04-06T08:28:01;7.30;99.90
24772;DHT22;12870;52.274;9.754;2023-04-06T08:30:26;7.40;99.90
24772;DHT22;12870;52.274;9.754;2023-04-06T08:32:52;7.50;99.90
24772;DHT22;12870;52.274;9.754;2023-04-06T08:35:18;7.50;99.90
24772;DHT22;12870;52.274;9.754;2023-04-06T08:37:44;7.70;99.90
24772;DHT22;12870;52.274;9.754;2023-04-06T08:40:10;7.80;99.90
24772;DHT22;12870;52.274;9.754;2023-04-06T08:42:40;7.90;99.90
24772;DHT22;12870;52.274;9.754;2023-04-06T08:45:09;8.00;99.90
24772;DHT22;12870;52.274;9.754;2023-04-06T08:47:36;8.20;99.90
24772;DHT22;12870;52.274;9.754;2023-04-06T08:50:05;8.30;99.90
24772;DHT22;12870;52.274;9.754;2023-04-06T08:52:32;8.40;99.90
24772;DHT22;12870;52.274;9.754;2023-04-06T08:54:59;8.40;99.90
24772;DHT22;12870;52.274;9.754;2023-04-06T08:57:25;8.40;99.90
24772;DHT22;12870;52.274;9.754;2023-04-06T08:59:52;8.60;99.90
24772;DHT22;12870;52.274;9.754;2023-04-06T09:02:18;8.70;99.90
24772;DHT22;12870;52.274;9.754;2023-04-06T09:04:54;8.80;99.90
24772;DHT22;12870;52.274;9.754;2023-04-06T09:07:20;9.00;99.90
24772;DHT22;12870;52.274;9.754;2023-04-06T09:09:47;9.10;99.90
24772;DHT22;12870;52.274;9.754;2023-04-06T09:12:30;9.30;99.90
24772;DHT22;12870;52.274;9.754;2023-04-06T09:14:57;9.30;99.90
24772;DHT22;12870;52.274;9.754;2023-04-06T09:17:24;9.40;99.90
24772;DHT22;12870;52.274;9.754;2023-04-06T09:19:50;9.50;99.90
24772;DHT22;12870;52.274;9.754;2023-04-06T09:22:17;9.60;99.90
24772;DHT22;12870;52.274;9.754;2023-04-06T09:24:46;9.70;99.90
24772;DHT22;12870;52.274;9.754;2023-04-06T09:27:13;9.80;99.90
24772;DHT22;12870;52.274;9.754;2023-04-06T09:29:39;9.90;99.90
24772;DHT22;12870;52.274;9.754;2023-04-06T09:32:06;10.00;99.90
24772;DHT22;12870;52.274;9.754;2023-04-06T09:34:33;10.10;99.90
24772;DHT22;12870;52.274;9.754;2023-04-06T09:36:59;10.20;99.90
24772;DHT22;12870;52.274;9.754;2023-04-06T09:39:25;10.30;99.90
24772;DHT22;12870;52.274;9.754;2023-04-06T09:41:52;10.50;99.90
24772;DHT22;12870;52.274;9.754;2023-04-06T09:44:19;10.70;99.90
24772;DHT22;12870;52.274;9.754;2023-04-06T09:46:46;10.90;99.00
24772;DHT22;12870;52.274;9.754;2023-04-06T09:49:13;11.00;97.80
24772;DHT22;12870;52.274;9.754;2023-04-06T09:51:54;11.00;98.30
24772;DHT22;12870;52.274;9.754;2023-04-06T09:54:22;11.10;97.40
24772;DHT22;12870;52.274;9.754;2023-04-06T09:57:08;11.20;97.10
24772;DHT22;12870;52.274;9.754;2023-04-06T10:00:17;11.40;98.10
24772;DHT22;12870;52.274;9.754;2023-04-06T10:08:06;11.60;94.50
24772;DHT22;12870;52.274;9.754;2023-04-06T10:10:34;11.90;93.00
24772;DHT22;12870;52.274;9.754;2023-04-06T10:13:00;11.90;93.00
24772;DHT22;12870;52.274;9.754;2023-04-06T10:15:28;12.10;92.30
24772;DHT22;12870;52.274;9.754;2023-04-06T10:17:56;12.20;91.10
24772;DHT22;12870;52.274;9.754;2023-04-06T10:23:19;12.00;91.40
24772;DHT22;12870;52.274;9.754;2023-04-06T10:25:58;12.20;90.40
24772;DHT22;12870;52.274;9.754;2023-04-06T10:28:25;12.50;91.00
24772;DHT22;12870;52.274;9.754;2023-04-06T10:30:58;12.70;91.40
24772;DHT22;12870;52.274;9.754;2023-04-06T10:33:25;12.90;90.00
24772;DHT22;12870;52.274;9.754;2023-04-06T10:35:51;13.00;89.00
24772;DHT22;12870;52.274;9.754;2023-04-06T10:38:17;13.20;88.80
24772;DHT22;12870;52.274;9.754;2023-04-06T10:40:47;13.50;85.90
24772;DHT22;12870;52.274;9.754;2023-04-06T10:43:18;14.00;80.70
24772;DHT22;12870;52.274;9.754;2023-04-06T10:45:44;14.70;80.30
24772;DHT22;12870;52.274;9.754;2023-04-06T10:48:15;15.40;75.60
24772;DHT22;12870;52.274;9.754;2023-04-06T10:50:46;15.80;71.20
24772;DHT22;12870;52.274;9.754;2023-04-06T10:53:23;16.00;60.30
24772;DHT22;12870;52.274;9.754;2023-04-06T10:55:50;15.90;57.00
24772;DHT22;12870;52.274;9.754;2023-04-06T10:58:16;15.80;53.20
24772;DHT22;12870;52.274;9.754;2023-04-06T11:00:46;16.00;55.90
24772;DHT22;12870;52.274;9.754;2023-04-06T11:03:12;16.90;53.40
24772;DHT22;12870;52.274;9.754;2023-04-06T11:05:38;17.50;55.20
24772;DHT22;12870;52.274;9.754;2023-04-06T11:08:04;17.80;50.00
24772;DHT22;12870;52.274;9.754;2023-04-06T11:10:30;17.60;50.40
24772;DHT22;12870;52.274;9.754;2023-04-06T11:12:56;17.60;49.40
24772;DHT22;12870;52.274;9.754;2023-04-06T11:15:22;17.60;46.90
24772;DHT22;12870;52.274;9.754;2023-04-06T11:17:48;17.90;46.20
24772;DHT22;12870;52.274;9.754;2023-04-06T11:20:14;17.90;43.80
24772;DHT22;12870;52.274;9.754;2023-04-06T11:22:53;18.10;43.40
24772;DHT22;12870;52.274;9.754;2023-04-06T11:25:19;17.70;44.20
24772;DHT22;12870;52.274;9.754;2023-04-06T11:27:46;18.10;44.60
24772;DHT22;12870;52.274;9.754;2023-04-06T11:30:13;18.80;43.50
24772;DHT22;12870;52.274;9.754;2023-04-06T11:32:44;18.90;43.80
24772;DHT22;12870;52.274;9.754;2023-04-06T11:35:23;19.00;42.60
24772;DHT22;12870;52.274;9.754;2023-04-06T11:37:52;19.30;40.90
24772;DHT22;12870;52.274;9.754;2023-04-06T11:40:22;19.40;41.20
24772;DHT22;12870;52.274;9.754;2023-04-06T11:42:55;19.80;40.20
24772;DHT22;12870;52.274;9.754;2023-04-06T11:45:21;19.80;40.90
24772;DHT22;12870;52.274;9.754;2023-04-06T11:47:59;20.10;40.70
24772;DHT22;12870;52.274;9.754;2023-04-06T11:50:31;20.20;38.60
24772;DHT22;12870;52.274;9.754;2023-04-06T11:53:01;20.00;38.40
24772;DHT22;12870;52.274;9.754;2023-04-06T11:55:27;20.00;38.90
24772;DHT22;12870;52.274;9.754;2023-04-06T11:57:53;20.10;38.40
24772;DHT22;12870;52.274;9.754;2023-04-06T12:00:20;20.70;37.60
24772;DHT22;12870;52.274;9.754;2023-04-06T12:02:47;20.50;36.30
24772;DHT22;12870;52.274;9.754;2023-04-06T12:05:12;21.40;38.50
24772;DHT22;12870;52.274;9.754;2023-04-06T12:07:38;21.10;34.50
24772;DHT22;12870;52.274;9.754;2023-04-06T12:10:04;21.20;38.60
24772;DHT22;12870;52.274;9.754;2023-04-06T12:12:30;21.10;35.20
24772;DHT22;12870;52.274;9.754;2023-04-06T12:14:57;21.10;35.80
24772;DHT22;12870;52.274;9.754;2023-04-06T12:17:22;20.70;36.10
24772;DHT22;12870;52.274;9.754;2023-04-06T12:19:48;20.20;35.40
24772;DHT22;12870;52.274;9.754;2023-04-06T12:22:15;20.70;39.40
24772;DHT22;12870;52.274;9.754;2023-04-06T12:24:41;21.10;37.10
24772;DHT22;12870;52.274;9.754;2023-04-06T12:27:07;21.00;33.40
24772;DHT22;12870;52.274;9.754;2023-04-06T12:29:34;21.10;35.50
24772;DHT22;12870;52.274;9.754;2023-04-06T12:32:00;21.10;33.80
24772;DHT22;12870;52.274;9.754;2023-04-06T12:34:27;21.50;35.60
24772;DHT22;12870;52.274;9.754;2023-04-06T12:36:53;22.00;35.30
24772;DHT22;12870;52.274;9.754;2023-04-06T12:39:19;22.40;34.50
24772;DHT22;12870;52.274;9.754;2023-04-06T12:41:45;22.60;33.70
24772;DHT22;12870;52.274;9.754;2023-04-06T12:44:11;22.60;32.50
24772;DHT22;12870;52.274;9.754;2023-04-06T12:46:37;22.10;32.70
24772;DHT22;12870;52.274;9.754;2023-04-06T12:49:02;21.50;32.40
24772;DHT22;12870;52.274;9.754;2023-04-06T12:51:28;21.30;32.40
24772;DHT22;12870;52.274;9.754;2023-04-06T12:53:54;21.30;34.20
24772;DHT22;12870;52.274;9.754;2023-04-06T12:56:20;21.20;34.00
24772;DHT22;12870;52.274;9.754;2023-04-06T12:58:48;21.40;33.40
24772;DHT22;12870;52.274;9.754;2023-04-06T13:01:14;21.70;32.90
24772;DHT22;12870;52.274;9.754;2023-04-06T13:03:43;22.50;32.70
24772;DHT22;12870;52.274;9.754;2023-04-06T13:06:09;22.30;32.20
24772;DHT22;12870;52.274;9.754;2023-04-06T13:08:35;22.10;33.00
24772;DHT22;12870;52.274;9.754;2023-04-06T13:11:02;22.60;32.80
24772;DHT22;12870;52.274;9.754;2023-04-06T13:13:29;22.70;32.30
24772;DHT22;12870;52.274;9.754;2023-04-06T13:16:00;22.70;31.40
24772;DHT22;12870;52.274;9.754;2023-04-06T13:18:28;22.80;29.60
24772;DHT22;12870;52.274;9.754;2023-04-06T13:20:55;22.10;29.70
24772;DHT22;12870;52.274;9.754;2023-04-06T13:23:22;22.10;30.00
24772;DHT22;12870;52.274;9.754;2023-04-06T13:25:47;22.70;31.70
24772;DHT22;12870;52.274;9.754;2023-04-06T13:28:13;23.40;30.60
24772;DHT22;12870;52.274;9.754;2023-04-06T13:30:39;23.90;30.00
24772;DHT22;12870;52.274;9.754;2023-04-06T13:33:05;24.10;29.00
24772;DHT22;12870;52.274;9.754;2023-04-06T13:35:32;23.30;27.70
24772;DHT22;12870;52.274;9.754;2023-04-06T13:37:58;22.90;28.90
24772;DHT22;12870;52.274;9.754;2023-04-06T13:40:24;23.20;28.70
24772;DHT22;12870;52.274;9.754;2023-04-06T13:42:50;23.10;28.80
24772;DHT22;12870;52.274;9.754;2023-04-06T13:45:16;23.30;29.90
24772;DHT22;12870;52.274;9.754;2023-04-06T13:47:41;23.30;27.70
24772;DHT22;12870;52.274;9.754;2023-04-06T13:50:07;23.10;28.40
24772;DHT22;12870;52.274;9.754;2023-04-06T13:52:33;23.10;27.70
24772;DHT22;12870;52.274;9.754;2023-04-06T13:55:01;23.30;28.60
24772;DHT22;12870;52.274;9.754;2023-04-06T13:57:27;23.70;28.30
24772;DHT22;12870;52.274;9.754;2023-04-06T13:59:55;23.10;28.30
24772;DHT22;12870;52.274;9.754;2023-04-06T14:02:20;22.60;28.70
24772;DHT22;12870;52.274;9.754;2023-04-06T14:04:52;22.90;28.60
24772;DHT22;12870;52.274;9.754;2023-04-06T14:07:20;22.90;27.80
24772;DHT22;12870;52.274;9.754;2023-04-06T14:09:46;23.10;28.20
24772;DHT22;12870;52.274;9.754;2023-04-06T14:12:11;23.10;27.60
24772;DHT22;12870;52.274;9.754;2023-04-06T14:14:37;23.10;28.60
24772;DHT22;12870;52.274;9.754;2023-04-06T14:17:03;23.60;27.00
24772;DHT22;12870;52.274;9.754;2023-04-06T14:19:28;23.90;28.00
24772;DHT22;12870;52.274;9.754;2023-04-06T14:21:54;24.30;27.90
24772;DHT22;12870;52.274;9.754;2023-04-06T14:24:21;24.40;26.80
24772;DHT22;12870;52.274;9.754;2023-04-06T14:26:48;24.30;26.90
24772;DHT22;12870;52.274;9.754;2023-04-06T14:29:13;24.10;26.70
24772;DHT22;12870;52.274;9.754;2023-04-06T14:31:39;24.10;27.40
24772;DHT22;12870;52.274;9.754;2023-04-06T14:34:04;24.00;26.70
24772;DHT22;12870;52.274;9.754;2023-04-06T14:36:32;24.00;26.80
24772;DHT22;12870;52.274;9.754;2023-04-06T14:39:05;23.10;26.50
24772;DHT22;12870;52.274;9.754;2023-04-06T14:41:32;23.10;27.20
24772;DHT22;12870;52.274;9.754;2023-04-06T14:43:57;23.40;26.20
24772;DHT22;12870;52.274;9.754;2023-04-06T14:46:23;23.20;26.20
24772;DHT22;12870;52.274;9.754;2023-04-06T14:48:49;23.00;26.70
24772;DHT22;12870;52.274;9.754;2023-04-06T14:51:16;23.20;27.00
24772;DHT22;12870;52.274;9.754;2023-04-06T14:53:42;22.80;26.80
24772;DHT22;12870;52.274;9.754;2023-04-06T14:56:08;23.20;27.00
24772;DHT22;12870;52.274;9.754;2023-04-06T14:58:34;23.00;26.90
24772;DHT22;12870;52.274;9.754;2023-04-06T15:01:00;23.30;27.20
24772;DHT22;12870;52.274;9.754;2023-04-06T15:03:27;23.60;26.60
24772;DHT22;12870;52.274;9.754;2023-04-06T15:05:54;23.70;26.80
24772;DHT22;12870;52.274;9.754;2023-04-06T15:08:20;23.50;25.80
24772;DHT22;12870;52.274;9.754;2023-04-06T15:10:47;23.20;26.20
24772;DHT22;12870;52.274;9.754;2023-04-06T15:13:13;23.10;26.20
24772;DHT22;12870;52.274;9.754;2023-04-06T15:15:38;22.70;26.30
24772;DHT22;12870;52.274;9.754;2023-04-06T15:18:06;22.40;26.10
24772;DHT22;12870;52.274;9.754;2023-04-06T15:20:32;22.40;26.20
24772;DHT22;12870;52.274;9.754;2023-04-06T15:22:57;22.50;26.80
24772;DHT22;12870;52.274;9.754;2023-04-06T15:25:23;22.30;27.00
24772;DHT22;12870;52.274;9.754;2023-04-06T15:27:49;22.50;26.80
24772;DHT22;12870;52.274;9.754;2023-04-06T15:30:15;22.50;26.40
24772;DHT22;12870;52.274;9.754;2023-04-06T15:32:57;22.40;26.00
24772;DHT22;12870;52.274;9.754;2023-04-06T15:35:23;22.50;26.10
24772;DHT22;12870;52.274;9.754;2023-04-06T15:37:49;22.50;25.60
24772;DHT22;12870;52.274;9.754;2023-04-06T15:40:15;22.30;25.50
24772;DHT22;12870;52.274;9.754;2023-04-06T15:42:41;22.00;26.20
24772;DHT22;12870;52.274;9.754;2023-04-06T15:45:11;21.80;26.30